Time;durP1;ratioP1;P1;durP2;ratioP2;P2;SDS_P1;SDS_P2;PMS_P1;PMS_P2;Temp;Humidity;BMP_temperature;BMP_pressure;BME280_temperature;BME280_humidity;BME280_pressure;Samples;Min_cycle;Max_cycle;Signal;HPM_P1;HPM_P2
2022/09/12 00:00:30;;;;;;;32.25;16.83;;;;;;;;;;5010064;28;20034;-60
2022/09/12 00:02:57;;;;;;;31.00;16.48;;;;;;;;;;5007973;28;20042;-59
2022/09/12 00:05:22;;;;;;;28.10;15.82;;;;;;;;;;4991135;28;20120;-60
2022/09/12 00:07:48;;;;;;;29.08;15.98;;;;;;;;;;5000283;28;20034;-59
2022/09/12 00:10:14;;;;;;;30.38;15.95;;;;;;;;;;4990298;28;20030;-60
2022/09/12 00:12:39;;;;;;;25.92;15.85;;;;;;;;;;4989784;28;20038;-59
2022/09/12 00:15:06;;;;;;;27.60;15.52;;;;;;;;;;4994263;28;20075;-60
2022/09/12 00:17:36;;;;;;;27.23;15.68;;;;;;;;;;4997411;28;20057;-60
2022/09/12 00:20:04;;;;;;;28.15;15.43;;;;;;;;;;4986754;28;20067;-59
2022/09/12 00:22:29;;;;;;;26.83;14.57;;;;;;;;;;5002938;28;20050;-59
2022/09/12 00:24:55;;;;;;;31.67;16.02;;;;;;;;;;4993168;28;20030;-60
2022/09/12 00:27:20;;;;;;;29.85;16.02;;;;;;;;;;4992107;28;20072;-60
2022/09/12 00:29:46;;;;;;;29.02;15.30;;;;;;;;;;4989665;28;20042;-61
2022/09/12 00:32:11;;;;;;;30.35;16.00;;;;;;;;;;4990151;28;20385;-61
2022/09/12 00:34:36;;;;;;;29.50;15.82;;;;;;;;;;4995250;28;20122;-61
2022/09/12 00:37:02;;;;;;;36.60;17.27;;;;;;;;;;4974858;28;20043;-61
2022/09/12 00:39:28;;;;;;;32.58;16.88;;;;;;;;;;4989285;28;20475;-61
2022/09/12 00:41:53;;;;;;;29.65;15.90;;;;;;;;;;4990166;28;20062;-61
2022/09/12 00:44:21;;;;;;;33.83;16.42;;;;;;;;;;4991085;28;20088;-61
2022/09/12 00:46:51;;;;;;;29.08;15.80;;;;;;;;;;5006135;28;20030;-61
2022/09/12 00:49:33;;;;;;;34.17;16.52;;;;;;;;;;4988074;28;20042;-61
2022/09/12 00:52:17;;;;;;;27.60;15.98;;;;;;;;;;4989622;28;20082;-61
2022/09/12 00:54:59;;;;;;;27.05;15.43;;;;;;;;;;4996051;28;20392;-60
2022/09/12 00:57:46;;;;;;;28.38;15.35;;;;;;;;;;4989381;28;20110;-61
2022/09/12 01:00:15;;;;;;;29.90;15.93;;;;;;;;;;4981188;28;20050;-61
2022/09/12 01:02:50;;;;;;;29.88;16.33;;;;;;;;;;4971913;28;20091;-61
2022/09/12 01:05:16;;;;;;;32.15;15.32;;;;;;;;;;4989380;28;20037;-61
2022/09/12 01:07:43;;;;;;;37.47;17.83;;;;;;;;;;4983176;28;20075;-62
2022/09/12 01:10:10;;;;;;;32.05;16.92;;;;;;;;;;4994603;28;20041;-62
2022/09/12 01:12:38;;;;;;;33.28;16.33;;;;;;;;;;4987399;28;20492;-61
2022/09/12 01:15:05;;;;;;;38.83;17.33;;;;;;;;;;4972892;28;20030;-60
2022/09/12 01:17:55;;;;;;;30.27;16.02;;;;;;;;;;4979070;28;20047;-61
2022/09/12 01:20:59;;;;;;;28.57;14.87;;;;;;;;;;4981316;28;20120;-60
2022/09/12 01:24:02;;;;;;;30.00;15.68;;;;;;;;;;4971481;28;20037;-60
2022/09/12 01:26:53;;;;;;;28.38;14.80;;;;;;;;;;4990084;28;20041;-60
2022/09/12 01:29:55;;;;;;;31.50;15.65;;;;;;;;;;4994601;28;20030;-61
2022/09/12 01:32:35;;;;;;;28.58;14.93;;;;;;;;;;5009788;28;20130;-60
2022/09/12 01:35:07;;;;;;;33.00;15.53;;;;;;;;;;5005028;28;20118;-60
2022/09/12 01:37:52;;;;;;;30.85;15.73;;;;;;;;;;4992618;28;20641;-60
2022/09/12 01:40:22;;;;;;;31.38;15.90;;;;;;;;;;4987648;28;20040;-60
2022/09/12 01:43:03;;;;;;;32.03;15.88;;;;;;;;;;4994057;28;20097;-60
2022/09/12 01:45:44;;;;;;;28.17;15.48;;;;;;;;;;5010464;28;20132;-60
2022/09/12 01:48:21;;;;;;;27.50;15.30;;;;;;;;;;4999593;28;20034;-60
2022/09/12 01:50:55;;;;;;;26.90;14.43;;;;;;;;;;4992657;28;20045;-59
2022/09/12 01:53:31;;;;;;;31.35;16.17;;;;;;;;;;4993007;28;20100;-60
2022/09/12 01:56:07;;;;;;;32.72;16.48;;;;;;;;;;4992484;28;20041;-60
2022/09/12 01:58:42;;;;;;;31.08;15.80;;;;;;;;;;4987849;28;20387;-60
2022/09/12 02:01:14;;;;;;;30.00;15.55;;;;;;;;;;5004851;28;20188;-60
2022/09/12 02:03:53;;;;;;;31.55;16.77;;;;;;;;;;4995485;28;20038;-60
2022/09/12 02:06:24;;;;;;;35.13;17.80;;;;;;;;;;5014080;28;20037;-60
2022/09/12 02:08:53;;;;;;;39.03;18.08;;;;;;;;;;4980231;28;20031;-60
2022/09/12 02:11:19;;;;;;;35.30;17.55;;;;;;;;;;4993095;28;20113;-59
2022/09/12 02:14:09;;;;;;;39.13;17.50;;;;;;;;;;4997891;28;20038;-60
2022/09/12 02:16:41;;;;;;;34.40;16.30;;;;;;;;;;4991035;28;20045;-60
2022/09/12 02:19:19;;;;;;;37.30;17.73;;;;;;;;;;4998151;28;20464;-59
2022/09/12 02:21:49;;;;;;;32.30;15.93;;;;;;;;;;4984667;28;20030;-59
2022/09/12 02:24:17;;;;;;;33.10;16.80;;;;;;;;;;4990072;28;20360;-59
2022/09/12 02:26:48;;;;;;;33.20;16.95;;;;;;;;;;4998113;28;20045;-59
2022/09/12 02:29:14;;;;;;;33.85;16.15;;;;;;;;;;4983643;28;20030;-60
2022/09/12 02:31:44;;;;;;;37.47;17.55;;;;;;;;;;4991686;28;20424;-60
2022/09/12 02:34:27;;;;;;;38.33;18.07;;;;;;;;;;4990787;28;20030;-61
2022/09/12 02:37:43;;;;;;;33.03;17.67;;;;;;;;;;4993721;28;20044;-60
2022/09/12 02:40:09;;;;;;;33.55;16.08;;;;;;;;;;4992397;28;20049;-60
2022/09/12 02:42:35;;;;;;;36.97;16.40;;;;;;;;;;4997664;28;20386;-60
2022/09/12 02:45:02;;;;;;;35.50;17.17;;;;;;;;;;4995201;28;20383;-59
2022/09/12 02:47:45;;;;;;;37.25;17.42;;;;;;;;;;4998515;28;20037;-60
2022/09/12 02:50:12;;;;;;;40.42;17.88;;;;;;;;;;4989624;28;20097;-60
2022/09/12 02:52:38;;;;;;;42.58;17.27;;;;;;;;;;4997872;28;20034;-59
2022/09/12 02:55:04;;;;;;;41.63;17.83;;;;;;;;;;4993685;28;20084;-60
2022/09/12 02:57:31;;;;;;;36.35;17.13;;;;;;;;;;4995455;28;20089;-60
2022/09/12 02:59:59;;;;;;;37.05;16.92;;;;;;;;;;4992934;28;20041;-59
2022/09/12 03:02:57;;;;;;;30.75;17.05;;;;;;;;;;4986737;28;20441;-60
2022/09/12 03:05:36;;;;;;;34.38;16.30;;;;;;;;;;5003995;28;20038;-59
2022/09/12 03:08:20;;;;;;;35.80;16.65;;;;;;;;;;5001537;28;20072;-61
2022/09/12 03:11:07;;;;;;;39.35;17.13;;;;;;;;;;4992461;28;20462;-60
2022/09/12 03:13:39;;;;;;;43.72;17.15;;;;;;;;;;4997896;28;20029;-60
2022/09/12 03:16:39;;;;;;;46.58;17.65;;;;;;;;;;4991258;28;20050;-61
2022/09/12 03:19:14;;;;;;;38.75;16.73;;;;;;;;;;4988053;28;20046;-61
2022/09/12 03:21:53;;;;;;;38.10;17.45;;;;;;;;;;4975395;28;20072;-61
2022/09/12 03:24:28;;;;;;;44.95;18.23;;;;;;;;;;4991563;28;20041;-60
2022/09/12 03:27:35;;;;;;;40.58;17.20;;;;;;;;;;4998491;28;20426;-60
2022/09/12 03:30:03;;;;;;;43.80;17.40;;;;;;;;;;4978491;28;20419;-60
2022/09/12 03:32:44;;;;;;;37.05;16.15;;;;;;;;;;4982477;28;20136;-60
2022/09/12 03:35:11;;;;;;;31.55;16.08;;;;;;;;;;4998234;28;20037;-60
2022/09/12 03:37:36;;;;;;;32.65;15.57;;;;;;;;;;4992631;28;20479;-60
2022/09/12 03:40:04;;;;;;;33.58;16.65;;;;;;;;;;4990450;28;20030;-60
2022/09/12 03:42:29;;;;;;;34.30;15.90;;;;;;;;;;5004830;28;20088;-60
2022/09/12 03:44:54;;;;;;;34.17;16.63;;;;;;;;;;4997428;28;20030;-60
2022/09/12 03:47:20;;;;;;;36.35;16.00;;;;;;;;;;5012185;28;20061;-61
2022/09/12 03:49:45;;;;;;;37.78;16.58;;;;;;;;;;4990939;28;20455;-59
2022/09/12 03:52:10;;;;;;;33.40;15.63;;;;;;;;;;4992515;28;20406;-59
2022/09/12 03:54:36;;;;;;;33.15;15.80;;;;;;;;;;4988731;28;20495;-60
2022/09/12 03:57:01;;;;;;;37.75;16.73;;;;;;;;;;4992598;28;20034;-59
2022/09/12 03:59:27;;;;;;;33.47;15.70;;;;;;;;;;4977828;28;20423;-59
2022/09/12 04:01:52;;;;;;;33.95;15.55;;;;;;;;;;4980524;28;20475;-59
2022/09/12 04:04:17;;;;;;;32.65;15.55;;;;;;;;;;4989497;28;20034;-59
2022/09/12 04:06:43;;;;;;;35.30;16.05;;;;;;;;;;5002297;28;20041;-63
2022/09/12 04:09:08;;;;;;;31.00;15.30;;;;;;;;;;4996399;28;20030;-60
2022/09/12 04:11:34;;;;;;;33.08;16.15;;;;;;;;;;4989334;28;20442;-59
2022/09/12 04:14:00;;;;;;;33.60;15.68;;;;;;;;;;4992443;28;20129;-59
2022/09/12 04:16:25;;;;;;;34.50;14.95;;;;;;;;;;4990884;28;20121;-59
2022/09/12 04:18:51;;;;;;;31.02;15.05;;;;;;;;;;4984987;28;20265;-60
2022/09/12 04:21:18;;;;;;;33.58;16.00;;;;;;;;;;4991662;28;20391;-59
2022/09/12 04:23:44;;;;;;;32.25;14.50;;;;;;;;;;4996217;28;20033;-59
2022/09/12 04:26:10;;;;;;;37.03;14.65;;;;;;;;;;4997228;28;20049;-59
2022/09/12 04:28:37;;;;;;;33.45;15.05;;;;;;;;;;4990124;28;20088;-59
2022/09/12 04:31:08;;;;;;;31.40;14.95;;;;;;;;;;4990538;28;20479;-60
2022/09/12 04:33:34;;;;;;;;;;;;;;;;;;4975107;28;20038;-58
2022/09/12 04:36:07;;;;;;;32.83;15.15;;;;;;;;;;4997236;28;19914;-60
2022/09/12 04:38:34;;;;;;;33.22;14.77;;;;;;;;;;4991664;28;20442;-59
2022/09/12 04:40:59;;;;;;;27.70;13.88;;;;;;;;;;4990695;28;20041;-59
2022/09/12 04:43:25;;;;;;;29.85;15.02;;;;;;;;;;4989831;28;20031;-60
2022/09/12 04:45:50;;;;;;;32.70;14.75;;;;;;;;;;4990426;28;20128;-60
2022/09/12 04:48:16;;;;;;;34.28;15.35;;;;;;;;;;4990678;28;20404;-59
2022/09/12 04:50:41;;;;;;;38.15;15.40;;;;;;;;;;4990598;28;20088;-59
2022/09/12 04:53:07;;;;;;;38.38;16.58;;;;;;;;;;4983471;28;20031;-60
2022/09/12 04:55:34;;;;;;;31.42;15.52;;;;;;;;;;4982750;28;20030;-60
2022/09/12 04:58:00;;;;;;;32.63;15.95;;;;;;;;;;5004519;28;20037;-60
2022/09/12 05:00:25;;;;;;;35.78;16.83;;;;;;;;;;5012149;28;20057;-60
2022/09/12 05:02:51;;;;;;;39.75;16.17;;;;;;;;;;5000254;28;20037;-60
2022/09/12 05:05:16;;;;;;;35.30;16.13;;;;;;;;;;5010902;28;20057;-60
2022/09/12 05:07:42;;;;;;;31.83;16.50;;;;;;;;;;5013464;28;20173;-61
2022/09/12 05:10:08;;;;;;;36.10;16.10;;;;;;;;;;5012188;28;20030;-61
2022/09/12 05:12:34;;;;;;;38.28;16.33;;;;;;;;;;5013369;28;20046;-61
2022/09/12 05:15:00;;;;;;;34.40;16.02;;;;;;;;;;4998526;28;20068;-61
2022/09/12 05:17:28;;;;;;;30.63;15.15;;;;;;;;;;5015176;28;20164;-61
2022/09/12 05:19:54;;;;;;;37.33;16.75;;;;;;;;;;5007332;28;20030;-62
2022/09/12 05:22:20;;;;;;;36.20;16.55;;;;;;;;;;5008775;28;20073;-61
2022/09/12 05:24:47;;;;;;;41.35;16.95;;;;;;;;;;5010736;28;20041;-61
2022/09/12 05:27:12;;;;;;;45.15;18.10;;;;;;;;;;5001196;28;20407;-62
2022/09/12 05:29:38;;;;;;;35.67;16.58;;;;;;;;;;5007994;28;20038;-62
2022/09/12 05:32:03;;;;;;;37.42;16.98;;;;;;;;;;5004868;28;20483;-63
2022/09/12 05:34:29;;;;;;;38.20;16.20;;;;;;;;;;5000063;28;20034;-65
2022/09/12 05:36:54;;;;;;;39.00;17.83;;;;;;;;;;4991485;28;20273;-64
2022/09/12 05:39:20;;;;;;;39.35;17.65;;;;;;;;;;5005637;28;20065;-64
2022/09/12 05:41:46;;;;;;;36.97;17.77;;;;;;;;;;5013546;28;20394;-65
2022/09/12 05:44:13;;;;;;;38.25;17.92;;;;;;;;;;5007072;28;20445;-62
2022/09/12 05:46:41;;;;;;;33.03;16.23;;;;;;;;;;5013542;28;20025;-63
2022/09/12 05:49:09;;;;;;;39.10;17.30;;;;;;;;;;5009408;28;20049;-64
2022/09/12 05:51:37;;;;;;;33.70;16.60;;;;;;;;;;5005172;28;20064;-62
2022/09/12 05:54:04;;;;;;;34.70;16.55;;;;;;;;;;4991467;28;20030;-67
2022/09/12 05:56:33;;;;;;;33.78;16.38;;;;;;;;;;4979631;28;20042;-65
2022/09/12 05:59:04;;;;;;;34.38;16.17;;;;;;;;;;4980895;28;20981;-65
2022/09/12 06:01:30;;;;;;;;;;;;;;;;;;4981636;28;20042;-63
2022/09/12 06:03:59;;;;;;;32.33;14.93;;;;;;;;;;4993715;28;19910;-63
2022/09/12 06:06:26;;;;;;;31.52;14.98;;;;;;;;;;4993288;28;20030;-63
2022/09/12 06:08:55;;;;;;;30.48;15.93;;;;;;;;;;5012200;28;20402;-63
2022/09/12 06:11:23;;;;;;;28.70;15.60;;;;;;;;;;4997256;28;20038;-66
2022/09/12 06:13:51;;;;;;;27.33;14.55;;;;;;;;;;5011722;28;20037;-65
2022/09/12 06:16:20;;;;;;;24.58;14.15;;;;;;;;;;5009169;28;20418;-64
2022/09/12 06:18:53;;;;;;;25.75;14.30;;;;;;;;;;5012419;28;20069;-65
2022/09/12 06:21:19;;;;;;;25.35;14.48;;;;;;;;;;5009749;28;20034;-65
2022/09/12 06:23:45;;;;;;;26.73;14.45;;;;;;;;;;5007870;28;20063;-65
2022/09/12 06:26:12;;;;;;;25.70;13.88;;;;;;;;;;4988040;28;20037;-64
2022/09/12 06:28:40;;;;;;;23.55;13.55;;;;;;;;;;5004030;28;20033;-61
2022/09/12 06:31:10;;;;;;;23.75;12.95;;;;;;;;;;5012020;28;20039;-62
2022/09/12 06:33:38;;;;;;;22.77;13.68;;;;;;;;;;4997767;28;20498;-68
2022/09/12 06:36:03;;;;;;;21.38;12.98;;;;;;;;;;4998575;28;20026;-65
2022/09/12 06:38:29;;;;;;;19.15;12.75;;;;;;;;;;4998887;28;20413;-68
2022/09/12 06:40:54;;;;;;;23.33;13.20;;;;;;;;;;5003172;28;20038;-68
2022/09/12 06:43:20;;;;;;;18.20;12.07;;;;;;;;;;4996143;28;20031;-69
2022/09/12 06:45:49;;;;;;;22.30;13.38;;;;;;;;;;4995451;28;20078;-69
2022/09/12 06:48:14;;;;;;;19.40;12.75;;;;;;;;;;4998554;28;20069;-68
2022/09/12 06:50:40;;;;;;;17.83;12.10;;;;;;;;;;5007279;28;20037;-66
2022/09/12 06:53:06;;;;;;;22.83;12.90;;;;;;;;;;5011835;28;20040;-69
2022/09/12 06:55:32;;;;;;;22.40;12.68;;;;;;;;;;4993405;28;20079;-67
2022/09/12 06:57:58;;;;;;;20.52;12.40;;;;;;;;;;4992425;28;20050;-68
2022/09/12 07:00:23;;;;;;;19.20;12.18;;;;;;;;;;5002293;28;20458;-68
2022/09/12 07:02:54;;;;;;;18.65;12.05;;;;;;;;;;4992274;28;20027;-68
2022/09/12 07:05:19;;;;;;;19.27;12.27;;;;;;;;;;4983269;28;20038;-69
2022/09/12 07:07:45;;;;;;;19.00;11.77;;;;;;;;;;4990766;28;20112;-69
2022/09/12 07:10:11;;;;;;;15.50;11.38;;;;;;;;;;4973717;28;20483;-69
2022/09/12 07:12:36;;;;;;;17.50;11.43;;;;;;;;;;4990327;28;20114;-68
2022/09/12 07:15:02;;;;;;;19.90;11.43;;;;;;;;;;5003788;28;20177;-71
2022/09/12 07:17:27;;;;;;;16.00;10.98;;;;;;;;;;4988016;28;20045;-70
2022/09/12 07:19:53;;;;;;;15.77;10.80;;;;;;;;;;4994030;28;20026;-70
2022/09/12 07:22:19;;;;;;;18.95;11.48;;;;;;;;;;4998231;28;20042;-69
2022/09/12 07:24:44;;;;;;;16.55;10.75;;;;;;;;;;5008454;28;20064;-68
2022/09/12 07:27:10;;;;;;;16.77;11.15;;;;;;;;;;4979654;28;20026;-67
2022/09/12 07:29:35;;;;;;;17.48;10.75;;;;;;;;;;4992914;28;20571;-68
2022/09/12 07:32:01;;;;;;;16.98;10.48;;;;;;;;;;4991283;28;20045;-66
2022/09/12 07:34:26;;;;;;;17.95;11.15;;;;;;;;;;5010855;28;20026;-66
2022/09/12 07:36:52;;;;;;;15.63;11.27;;;;;;;;;;4982250;28;20030;-65
2022/09/12 07:39:17;;;;;;;16.27;10.68;;;;;;;;;;5011620;28;20022;-67
2022/09/12 07:41:43;;;;;;;17.35;10.63;;;;;;;;;;5009329;28;20095;-66
2022/09/12 07:44:08;;;;;;;17.75;10.35;;;;;;;;;;5002375;28;20057;-65
2022/09/12 07:46:34;;;;;;;17.73;10.43;;;;;;;;;;5003563;28;20489;-64
2022/09/12 07:49:00;;;;;;;18.88;10.85;;;;;;;;;;5011234;28;20616;-66
2022/09/12 07:51:28;;;;;;;15.55;10.18;;;;;;;;;;5010502;28;20585;-66
2022/09/12 07:53:55;;;;;;;20.35;10.85;;;;;;;;;;4996044;28;20367;-65
2022/09/12 07:56:20;;;;;;;15.70;10.30;;;;;;;;;;4991056;28;20030;-66
2022/09/12 07:58:46;;;;;;;17.60;10.90;;;;;;;;;;4985187;28;20034;-62
2022/09/12 08:01:14;;;;;;;17.33;11.00;;;;;;;;;;5000625;28;20471;-65
2022/09/12 08:03:41;;;;;;;17.42;11.02;;;;;;;;;;5000216;28;20490;-65
2022/09/12 08:06:19;;;;;;;14.73;10.65;;;;;;;;;;4999826;28;20525;-65
2022/09/12 08:08:45;;;;;;;15.82;10.38;;;;;;;;;;5008923;28;20057;-64
2022/09/12 08:11:13;;;;;;;19.15;10.52;;;;;;;;;;4984354;28;20047;-64
2022/09/12 08:13:40;;;;;;;15.20;10.00;;;;;;;;;;4972618;28;20038;-63
2022/09/12 08:16:17;;;;;;;19.08;10.48;;;;;;;;;;5007244;28;20474;-65
2022/09/12 08:18:43;;;;;;;16.95;10.82;;;;;;;;;;5007168;28;20046;-63
2022/09/12 08:21:18;;;;;;;15.85;10.15;;;;;;;;;;4987225;28;20044;-63
2022/09/12 08:23:44;;;;;;;16.27;10.52;;;;;;;;;;4984073;28;20035;-61
2022/09/12 08:26:11;;;;;;;15.40;10.23;;;;;;;;;;4991985;28;20466;-60
2022/09/12 08:28:39;;;;;;;17.52;10.18;;;;;;;;;;4987085;28;20034;-61
2022/09/12 08:31:11;;;;;;;18.65;10.57;;;;;;;;;;5006122;28;20034;-60
2022/09/12 08:33:37;;;;;;;16.33;10.32;;;;;;;;;;5006806;28;20071;-60
2022/09/12 08:36:09;;;;;;;16.52;10.15;;;;;;;;;;5014393;28;20045;-60
2022/09/12 08:38:36;;;;;;;16.88;10.30;;;;;;;;;;5013403;28;20034;-60
2022/09/12 08:41:29;;;;;;;15.57;9.70;;;;;;;;;;5002770;28;20150;-60
2022/09/12 08:44:32;;;;;;;17.98;10.32;;;;;;;;;;5004031;28;20046;-60
2022/09/12 08:47:18;;;;;;;14.25;9.57;;;;;;;;;;4987552;28;20027;-61
2022/09/12 08:50:08;;;;;;;16.02;9.75;;;;;;;;;;5018239;28;20034;-60
2022/09/12 08:52:57;;;;;;;15.15;9.40;;;;;;;;;;5013459;28;20164;-61
2022/09/12 08:55:40;;;;;;;18.42;9.95;;;;;;;;;;5002897;28;20037;-61
2022/09/12 08:58:18;;;;;;;18.38;9.90;;;;;;;;;;4994681;28;20041;-61
2022/09/12 09:01:21;;;;;;;14.50;9.90;;;;;;;;;;5006974;28;20534;-61
2022/09/12 09:03:52;;;;;;;20.30;10.00;;;;;;;;;;4991748;28;20037;-61
2022/09/12 09:06:41;;;;;;;14.65;9.85;;;;;;;;;;5014970;28;20040;-60
2022/09/12 09:09:16;;;;;;;14.23;9.40;;;;;;;;;;5009299;28;20038;-60
2022/09/12 09:12:12;;;;;;;14.35;9.27;;;;;;;;;;4991800;28;20494;-60
2022/09/12 09:14:53;;;;;;;14.13;9.23;;;;;;;;;;4993815;28;20093;-61
2022/09/12 09:17:44;;;;;;;15.20;9.60;;;;;;;;;;5010326;28;20124;-60
2022/09/12 09:20:29;;;;;;;16.42;9.75;;;;;;;;;;4992106;28;20080;-60
2022/09/12 09:23:05;;;;;;;15.10;9.02;;;;;;;;;;4994506;28;20026;-60
2022/09/12 09:26:07;;;;;;;13.77;9.32;;;;;;;;;;4992391;28;20026;-59
2022/09/12 09:28:41;;;;;;;15.23;9.18;;;;;;;;;;4995417;28;20026;-61
2022/09/12 09:31:18;;;;;;;14.07;9.35;;;;;;;;;;4996708;28;20070;-61
2022/09/12 09:33:46;;;;;;;14.23;9.23;;;;;;;;;;4992518;28;20466;-61
2022/09/12 09:36:21;;;;;;;14.55;8.90;;;;;;;;;;4997011;28;20109;-61
2022/09/12 09:39:13;;;;;;;14.77;9.07;;;;;;;;;;5008315;28;20030;-60
2022/09/12 09:41:57;;;;;;;14.63;9.00;;;;;;;;;;4994911;28;20034;-61
2022/09/12 09:44:23;;;;;;;12.77;8.13;;;;;;;;;;5002428;28;20034;-61
2022/09/12 09:46:53;;;;;;;11.52;8.88;;;;;;;;;;5012702;28;20026;-61
2022/09/12 09:49:18;;;;;;;12.43;8.20;;;;;;;;;;5012658;28;20038;-61
2022/09/12 09:51:44;;;;;;;13.90;8.50;;;;;;;;;;5006240;28;20041;-62
2022/09/12 09:54:23;;;;;;;12.15;7.93;;;;;;;;;;4992669;28;20064;-61
2022/09/12 09:56:49;;;;;;;11.73;7.90;;;;;;;;;;4987230;28;20114;-61
2022/09/12 09:59:29;;;;;;;13.13;7.88;;;;;;;;;;4980029;28;20532;-61
2022/09/12 10:01:56;;;;;;;13.00;7.03;;;;;;;;;;4988957;28;20058;-61
2022/09/12 10:04:28;;;;;;;12.27;7.20;;;;;;;;;;4997122;28;20042;-61
2022/09/12 10:06:57;;;;;;;11.57;7.28;;;;;;;;;;5003948;28;20105;-62
2022/09/12 10:09:28;;;;;;;9.40;6.95;;;;;;;;;;5001918;28;20050;-62
2022/09/12 10:11:55;;;;;;;11.38;7.13;;;;;;;;;;5003996;28;20057;-64
2022/09/12 10:14:29;;;;;;;8.85;6.40;;;;;;;;;;5004541;28;20040;-61
2022/09/12 10:16:57;;;;;;;10.27;6.38;;;;;;;;;;4999469;28;20030;-61
2022/09/12 10:19:36;;;;;;;9.60;6.13;;;;;;;;;;4999841;28;20410;-61
2022/09/12 10:22:02;;;;;;;9.43;5.88;;;;;;;;;;5007507;28;20042;-60
2022/09/12 10:24:45;;;;;;;7.68;5.63;;;;;;;;;;5002168;28;20041;-60
2022/09/12 10:27:10;;;;;;;7.28;5.13;;;;;;;;;;5003789;28;20100;-61
2022/09/12 10:29:51;;;;;;;8.02;5.15;;;;;;;;;;5011081;28;20486;-61
2022/09/12 10:32:28;;;;;;;7.43;5.32;;;;;;;;;;5010899;28;20091;-61
2022/09/12 10:35:01;;;;;;;6.03;4.57;;;;;;;;;;5004868;28;20085;-61
2022/09/12 10:37:36;;;;;;;6.97;4.45;;;;;;;;;;5004692;28;20036;-61
2022/09/12 10:40:04;;;;;;;8.05;5.05;;;;;;;;;;5011415;28;20041;-62
2022/09/12 10:42:52;;;;;;;8.10;4.50;;;;;;;;;;5011432;28;20398;-61
2022/09/12 10:45:27;;;;;;;7.50;4.65;;;;;;;;;;5007642;28;20095;-62
2022/09/12 10:47:57;;;;;;;8.65;4.50;;;;;;;;;;5009009;28;20045;-62
2022/09/12 10:50:28;;;;;;;5.93;3.95;;;;;;;;;;5012245;28;20041;-62
2022/09/12 10:53:12;;;;;;;5.50;3.70;;;;;;;;;;4992779;28;20121;-62
2022/09/12 10:55:40;;;;;;;4.85;3.40;;;;;;;;;;4992768;28;20196;-61
2022/09/12 10:58:23;;;;;;;5.38;3.50;;;;;;;;;;5003650;28;20033;-61
2022/09/12 11:00:58;;;;;;;4.70;3.47;;;;;;;;;;4997917;28;20031;-62
2022/09/12 11:03:40;;;;;;;5.90;3.80;;;;;;;;;;5010190;28;20037;-62
2022/09/12 11:06:06;;;;;;;5.90;3.63;;;;;;;;;;4997846;28;20070;-61
2022/09/12 11:08:53;;;;;;;4.00;3.17;;;;;;;;;;4993275;28;20042;-62
2022/09/12 11:11:40;;;;;;;4.63;3.40;;;;;;;;;;5006515;28;20575;-61
2022/09/12 11:14:49;;;;;;;4.95;3.40;;;;;;;;;;4991423;28;20042;-61
2022/09/12 11:17:52;;;;;;;4.10;3.10;;;;;;;;;;4994300;28;20420;-61
2022/09/12 11:20:30;;;;;;;3.90;3.10;;;;;;;;;;4973758;28;20491;-62
2022/09/12 11:23:07;;;;;;;4.55;2.88;;;;;;;;;;4995750;28;20034;-62
2022/09/12 11:25:59;;;;;;;4.65;2.67;;;;;;;;;;5008253;28;20038;-63
2022/09/12 11:28:38;;;;;;;4.45;2.95;;;;;;;;;;4973723;28;20034;-62
2022/09/12 11:31:19;;;;;;;4.00;3.00;;;;;;;;;;5002451;28;20083;-62
2022/09/12 11:33:48;;;;;;;4.93;2.80;;;;;;;;;;5006969;28;20114;-62
2022/09/12 11:36:43;;;;;;;7.05;2.95;;;;;;;;;;5000775;28;20038;-62
2022/09/12 11:39:13;;;;;;;4.45;3.05;;;;;;;;;;5010650;28;20033;-63
2022/09/12 11:41:42;;;;;;;4.40;3.00;;;;;;;;;;5012235;28;20034;-63
2022/09/12 11:44:14;;;;;;;4.20;2.88;;;;;;;;;;4993371;28;20038;-63
2022/09/12 11:46:41;;;;;;;3.80;2.50;;;;;;;;;;4994391;28;20153;-62
2022/09/12 11:49:13;;;;;;;4.57;2.75;;;;;;;;;;5006023;28;20030;-63
2022/09/12 11:52:04;;;;;;;3.05;2.30;;;;;;;;;;4989762;28;20391;-62
2022/09/12 11:54:49;;;;;;;5.82;2.50;;;;;;;;;;4993534;28;20044;-61
2022/09/12 11:57:23;;;;;;;4.90;2.63;;;;;;;;;;5010360;28;20069;-63
2022/09/12 12:00:11;;;;;;;3.13;2.20;;;;;;;;;;4978892;28;20086;-62
2022/09/12 12:02:56;;;;;;;3.67;2.33;;;;;;;;;;4981035;28;20062;-62
2022/09/12 12:05:27;;;;;;;4.03;2.22;;;;;;;;;;5009277;28;20037;-62
2022/09/12 12:07:55;;;;;;;3.63;2.10;;;;;;;;;;5003482;28;20484;-62
2022/09/12 12:10:32;;;;;;;3.55;2.25;;;;;;;;;;4972569;28;20031;-63
2022/09/12 12:13:00;;;;;;;5.30;2.20;;;;;;;;;;5002390;28;20041;-62
2022/09/12 12:15:27;;;;;;;5.35;2.28;;;;;;;;;;5005325;28;20030;-62
2022/09/12 12:18:06;;;;;;;3.92;2.50;;;;;;;;;;4993784;28;20223;-62
2022/09/12 12:20:32;;;;;;;2.30;2.10;;;;;;;;;;5007333;28;20066;-61
2022/09/12 12:22:58;;;;;;;2.58;2.30;;;;;;;;;;5010682;28;20516;-61
2022/09/12 12:25:49;;;;;;;3.10;2.38;;;;;;;;;;4989407;28;20034;-61
2022/09/12 12:28:40;;;;;;;3.25;2.35;;;;;;;;;;4998773;28;20066;-63
2022/09/12 12:31:06;;;;;;;3.15;2.30;;;;;;;;;;5005232;28;20037;-64
2022/09/12 12:33:31;;;;;;;3.08;2.20;;;;;;;;;;5005836;28;20030;-63
2022/09/12 12:35:56;;;;;;;3.33;2.50;;;;;;;;;;5000961;28;20026;-63
2022/09/12 12:38:36;;;;;;;3.88;2.55;;;;;;;;;;4984163;28;20077;-62
2022/09/12 12:41:16;;;;;;;2.92;2.47;;;;;;;;;;4984282;28;20100;-62
2022/09/12 12:43:43;;;;;;;3.28;2.35;;;;;;;;;;4992154;28;20041;-62
2022/09/12 12:46:11;;;;;;;2.40;2.20;;;;;;;;;;5011304;28;20034;-63
2022/09/12 12:49:08;;;;;;;3.45;2.25;;;;;;;;;;4994721;28;20464;-62
2022/09/12 12:51:36;;;;;;;2.53;2.30;;;;;;;;;;4972574;28;20031;-61
2022/09/12 12:54:24;;;;;;;2.80;2.28;;;;;;;;;;4995899;28;20034;-62
2022/09/12 12:57:00;;;;;;;5.65;2.15;;;;;;;;;;5009853;28;20105;-63
2022/09/12 12:59:25;;;;;;;5.00;2.25;;;;;;;;;;4985385;28;20042;-63
2022/09/12 13:01:54;;;;;;;3.92;2.03;;;;;;;;;;4972641;28;20031;-63
2022/09/12 13:04:23;;;;;;;2.58;2.17;;;;;;;;;;5003691;28;20040;-63
2022/09/12 13:07:07;;;;;;;3.70;2.40;;;;;;;;;;4991259;28;20031;-63
2022/09/12 13:09:43;;;;;;;3.15;2.10;;;;;;;;;;4991154;28;20053;-63
2022/09/12 13:12:17;;;;;;;3.20;2.42;;;;;;;;;;4992140;28;20043;-62
2022/09/12 13:14:45;;;;;;;2.67;2.20;;;;;;;;;;5009303;28;20069;-62
2022/09/12 13:17:36;;;;;;;3.70;2.50;;;;;;;;;;4992839;28;20105;-62
2022/09/12 13:20:11;;;;;;;3.25;2.42;;;;;;;;;;4987290;28;20034;-62
2022/09/12 13:22:46;;;;;;;2.67;2.30;;;;;;;;;;5013647;28;20458;-62
2022/09/12 13:25:30;;;;;;;2.92;2.60;;;;;;;;;;5013877;28;20026;-62
2022/09/12 13:27:57;;;;;;;3.30;2.30;;;;;;;;;;4999910;28;20387;-61
2022/09/12 13:30:22;;;;;;;4.13;3.05;;;;;;;;;;5013242;28;20497;-61
2022/09/12 13:32:48;;;;;;;3.05;2.50;;;;;;;;;;5005753;28;20038;-61
2022/09/12 13:35:48;;;;;;;2.88;2.30;;;;;;;;;;5010986;28;20530;-62
2022/09/12 13:38:14;;;;;;;2.70;2.22;;;;;;;;;;5003073;28;20037;-61
2022/09/12 13:40:45;;;;;;;4.40;2.42;;;;;;;;;;4986264;28;20030;-62
2022/09/12 13:43:17;;;;;;;4.05;2.20;;;;;;;;;;4987517;28;20123;-61
2022/09/12 13:45:45;;;;;;;3.25;2.22;;;;;;;;;;4976626;28;20081;-61
2022/09/12 13:48:20;;;;;;;3.38;2.30;;;;;;;;;;4994827;28;20029;-61
2022/09/12 13:50:56;;;;;;;4.65;2.15;;;;;;;;;;4984463;28;20042;-61
2022/09/12 13:53:25;;;;;;;2.40;2.13;;;;;;;;;;4977308;28;20104;-61
2022/09/12 13:55:56;;;;;;;2.75;2.20;;;;;;;;;;4976429;28;20058;-61
2022/09/12 13:58:25;;;;;;;3.83;2.30;;;;;;;;;;4975371;28;20038;-61
2022/09/12 14:01:03;;;;;;;2.83;2.40;;;;;;;;;;4974597;28;20076;-61
2022/09/12 14:06:18;;;;;;;3.38;2.40;;;;;;;;;;4975232;28;20033;-61
2022/09/12 14:08:46;;;;;;;20.50;14.45;;;;;;;;;;4984177;28;20042;-61
2022/09/12 14:11:29;;;;;;;16.70;10.23;;;;;;;;;;4994313;28;20420;-61
2022/09/12 14:13:54;;;;;;;3.67;2.85;;;;;;;;;;4993808;28;20129;-60
2022/09/12 14:16:22;;;;;;;9.38;5.57;;;;;;;;;;4994893;28;20133;-61
2022/09/12 14:18:50;;;;;;;4.88;4.00;;;;;;;;;;4993236;28;20078;-60
2022/09/12 14:21:33;;;;;;;5.90;5.15;;;;;;;;;;4990734;28;20041;-60
2022/09/12 14:23:59;;;;;;;3.53;2.15;;;;;;;;;;4990111;28;20054;-61
2022/09/12 14:26:26;;;;;;;3.47;2.47;;;;;;;;;;4984922;28;20034;-61
2022/09/12 14:28:52;;;;;;;3.10;2.17;;;;;;;;;;4992397;28;20035;-61
2022/09/12 14:31:33;;;;;;;2.10;1.90;;;;;;;;;;4994314;28;20031;-61
2022/09/12 14:34:18;;;;;;;4.20;2.10;;;;;;;;;;4993170;28;20181;-61
2022/09/12 14:36:53;;;;;;;3.33;2.20;;;;;;;;;;5005826;28;20097;-62
2022/09/12 14:39:36;;;;;;;8.00;5.72;;;;;;;;;;5013540;28;20033;-61
2022/09/12 14:42:12;;;;;;;2.60;2.40;;;;;;;;;;5001649;28;20037;-62
2022/09/12 14:44:38;;;;;;;3.90;3.50;;;;;;;;;;5013277;28;20386;-63
2022/09/12 14:47:18;;;;;;;2.67;2.30;;;;;;;;;;4991289;28;20069;-60
2022/09/12 14:49:44;;;;;;;2.45;2.22;;;;;;;;;;5001893;28;20092;-60
2022/09/12 14:52:27;;;;;;;5.85;2.50;;;;;;;;;;5006121;28;20455;-60
2022/09/12 14:55:22;;;;;;;4.88;2.20;;;;;;;;;;4997373;28;20544;-60
2022/09/12 14:58:10;;;;;;;3.42;2.40;;;;;;;;;;4993247;28;20046;-60
2022/09/12 15:00:35;;;;;;;2.92;2.40;;;;;;;;;;4994108;28;20098;-60